Latest Weather Observations for Kuitpo

IDS60901

Issued at 10:01 pm CDT Tuesday 23 October 2018 (issued every 10 minutes, with the page automatically refreshed every 10 minutes)

About weather observations | Map of Adelaide area stations | Latest observations for Adelaide area | Other Formats
Station Details ID: 023887 Name: KUITPO FOREST RESERVE Lat: -35.17 Lon: 138.68 Height: 365.0 m
Data from the previous 72 hours. | See also: Recent months at Kuitpo
Date/Time
CDT
Temp
°C
App
Temp
°C
Dew
Point
°C
Rel
Hum
%
Delta-T
°C
Wind Press
QNH
hPa
Press
MSL
hPa
Rain since
9am
mm
Dir  Spd
km/h
Gust
km/h
Spd
kts
Gust
kts
23/10:00pm 7.7 4.0 4.5 80 1.4 SE 13 19 7 10 1021.1 1020.8 0.0
23/09:30pm 8.0 4.4 4.8 80 1.4 SE 13 17 7 9 1021.2 1020.9 0.0
23/09:00pm 8.2 4.6 4.8 79 1.5 SSE 13 20 7 11 1020.9 1020.6 0.0
23/08:30pm 8.7 5.0 4.7 76 1.8 SSE 13 19 7 10 1020.7 1020.3 0.0
23/08:00pm 9.2 5.4 4.0 70 2.3 SSE 13 22 7 12 1020.4 1020.0 0.0
23/07:30pm 9.9 6.6 4.3 68 2.5 SSE 11 19 6 10 1020.3 1019.9 0.0
23/07:00pm 10.5 6.3 4.0 64 2.9 S 15 24 8 13 1020.0 1019.6 0.0
23/06:30pm 11.1 7.6 5.4 68 2.7 S 13 20 7 11 1019.3 1018.9 0.0
23/06:00pm 11.5 7.7 5.6 67 2.8 SSE 15 26 8 14 1018.8 1018.5 0.0
23/05:30pm 12.9 9.0 5.3 60 3.6 SSW 15 26 8 14 1018.5 1018.1 0.0
23/05:00pm 12.8 8.6 5.5 61 3.5 SSW 17 26 9 14 1018.2 1017.8 0.0
23/04:30pm 12.9 9.1 5.8 62 3.4 SSW 15 24 8 13 1018.0 1017.6 0.0
23/04:00pm 13.5 9.8 6.1 61 3.6 S 15 24 8 13 1017.7 1017.3 0.0
23/03:30pm 13.1 8.5 5.5 60 3.6 SW 19 28 10 15 1017.6 1017.2 0.0
23/03:00pm 15.3 10.9 6.6 56 4.3 WSW 19 33 10 18 1017.4 1017.0 0.0
23/02:30pm 15.3 10.8 6.1 54 4.5 WSW 19 30 10 16 1017.6 1017.2 0.0
23/02:00pm 15.5 10.6 3.9 46 5.5 WSW 19 32 10 17 1017.6 1017.2 0.0
23/01:30pm 14.9 9.7 2.4 43 5.7 WSW 19 32 10 17 1017.5 1017.1 0.0
23/01:00pm 15.5 11.4 6.0 53 4.7 WSW 17 28 9 15 1017.5 1017.1 0.0
23/12:30pm 14.3 9.2 4.0 50 4.8 WSW 20 35 11 19 1017.5 1017.1 0.0
23/12:00pm 13.9 8.3 3.7 50 4.7 SW 22 35 12 19 1017.7 1017.3 0.0
23/11:30am 14.3 9.5 5.4 55 4.3 SW 20 33 11 18 1017.5 1017.1 0.0
23/11:00am 13.6 9.0 5.7 59 3.8 WSW 19 32 10 17 1017.4 1017.0 0.0
23/10:30am 12.6 8.2 7.5 71 2.5 SW 20 35 11 19 1017.2 1016.8 0.0
23/10:00am 11.8 6.8 6.3 69 2.6 WSW 22 33 12 18 1017.2 1016.8 0.0
23/09:30am 12.0 8.8 6.7 70 2.6 WSW 13 24 7 13 1017.0 1016.6 0.0
23/09:00am 11.5 8.3 6.8 73 2.3 WSW 13 19 7 10 1016.8 1016.4 0.0
23/08:30am 10.9 8.5 6.8 76 2.0 W 9 19 5 10 1016.5 1016.1 0.0
23/08:00am 10.7 7.8 6.6 76 2.0 W 11 15 6 8 1015.9 1015.5 0.0
23/07:30am 9.8 6.5 6.5 80 1.6 SW 13 19 7 10 1015.6 1015.2 0.0
23/07:00am 9.0 5.5 7.1 88 0.9 WSW 15 20 8 11 1015.1 1014.7 0.0
23/06:30am 8.8 5.3 7.4 91 0.7 SW 15 24 8 13 1014.7 1014.3 0.0
23/06:00am 9.1 5.7 7.7 91 0.7 SW 15 24 8 13 1014.3 1013.9 0.0
23/05:30am 9.1 5.8 7.9 92 0.6 WSW 15 20 8 11 1014.0 1013.6 0.0
23/05:00am 9.1 6.5 7.7 91 0.7 WSW 11 15 6 8 1013.8 1013.3 0.0
23/04:30am 9.3 7.0 7.6 89 0.8 WSW 9 15 5 8 1013.5 1013.0 0.0
23/04:00am 9.3 6.2 7.3 87 1.0 WSW 13 19 7 10 1013.5 1013.0 0.0
23/03:30am 10.2 7.2 7.8 85 1.2 WSW 13 20 7 11 1013.6 1013.1 0.0
23/03:00am 10.0 6.3 7.9 87 1.0 WSW 17 26 9 14 1013.4 1012.9 0.0
23/02:30am 10.1 6.5 8.4 89 0.8 WSW 17 26 9 14 1013.4 1012.9 0.0
23/02:00am 10.3 7.0 8.1 86 1.1 WSW 15 20 8 11 1013.1 1012.7 0.0
23/01:30am 10.4 7.8 7.8 84 1.3 W 11 13 6 7 1013.1 1012.7 0.0
23/01:00am 10.7 9.1 7.9 83 1.4 W 6 9 3 5 1013.4 1012.9 0.0
23/12:30am 10.9 8.6 7.6 80 1.6 WSW 9 11 5 6 1013.4 1012.9 0.0
23/12:00am 10.8 8.6 7.9 82 1.4 SW 9 15 5 8 1012.9 1012.5 0.0
 
Date/Time
CDT
Temp
°C
App
Temp
°C
Dew
Point
°C
Rel
Hum
%
Delta-T
°C
Wind Press
QNH
hPa
Press
MSL
hPa
Rain since
9am
mm
Dir  Spd
km/h
Gust
km/h
Spd
kts
Gust
kts
22/11:30pm 11.1 9.5 8.7 85 1.2 S 7 11 4 6 1012.8 1012.4 0.0
22/11:00pm 11.2 9.6 8.8 85 1.2 SSE 7 11 4 6 1012.9 1012.5 0.0
22/10:30pm 11.3 9.3 8.5 83 1.4 SSE 9 15 5 8 1012.8 1012.4 0.0
22/10:00pm 11.7 9.3 8.6 81 1.6 S 11 20 6 11 1012.2 1011.8 0.0
22/09:30pm 12.2 9.0 8.5 78 1.9 S 15 24 8 13 1012.1 1011.7 0.0
22/09:00pm 12.7 9.3 9.0 78 1.9 S 17 28 9 15 1011.6 1011.2 0.0
22/08:30pm 13.2 10.2 9.1 76 2.1 S 15 28 8 15 1011.2 1010.7 0.0
22/08:00pm 13.9 10.6 9.7 76 2.2 SSE 17 28 9 15 1010.5 1010.0 0.0
22/07:30pm 15.0 12.3 7.5 61 3.8 S 11 19 6 10 1010.1 1009.7 0.0
22/07:00pm 16.0 12.3 6.4 53 4.8 SSE 15 24 8 13 1009.5 1009.1 0.0
22/06:30pm 17.2 13.2 3.1 39 6.6 S 13 26 7 14 1009.6 1009.2 0.0
22/06:00pm 18.5 14.8 4.3 39 6.9 S 13 20 7 11 1009.4 1009.0 0.0
22/05:30pm 19.8 16.7 7.2 44 6.5 SW 13 20 7 11 1009.3 1008.9 0.0
22/05:00pm 21.5 17.6 5.4 35 8.1 SW 15 20 8 11 1009.2 1008.8 0.0
22/04:30pm 21.7 17.8 5.2 34 8.3 SW 15 20 8 11 1009.5 1009.1 0.0
22/04:00pm 23.3 19.5 5.7 32 9.1 WSW 15 26 8 14 1009.4 1009.0 0.0
22/03:30pm 24.6 20.4 5.9 30 9.8 WSW 17 26 9 14 1009.3 1008.9 0.0
22/03:00pm 24.2 18.4 2.4 24 10.6 W 22 37 12 20 1009.3 1008.9 0.0
22/02:30pm 24.3 18.2 2.5 24 10.7 WNW 24 43 13 23 1009.3 1008.9 0.0
22/02:00pm 24.1 18.4 2.9 25 10.4 WNW 22 35 12 19 1009.7 1009.3 0.0
22/01:30pm 23.8 18.1 2.6 25 10.4 NW 22 35 12 19 1010.0 1009.6 0.0
22/01:00pm 23.6 18.2 2.4 25 10.3 NW 20 35 11 19 1010.2 1009.8 0.0
22/12:30pm 22.8 16.7 2.8 27 9.7 NW 24 43 13 23 1010.7 1010.2 0.0
22/12:00pm 22.0 16.4 3.2 29 9.2 WNW 22 33 12 18 1011.0 1010.5 0.0
22/11:30am 21.4 16.3 4.0 32 8.6 WNW 20 35 11 19 1011.3 1010.8 0.0
22/11:00am 20.4 15.4 4.4 35 7.9 WNW 20 32 11 17 1011.7 1011.3 0.0
22/10:30am 20.5 14.9 3.7 33 8.2 WNW 22 35 12 19 1011.9 1011.5 0.0
22/10:00am 20.7 14.4 1.6 28 8.9 WNW 24 39 13 21 1012.1 1011.7 0.0
22/09:47am 20.7 13.6 1.1 27 9.1 WNW 28 50 15 27 1012.1 1011.7 0.0
22/09:30am 21.0 14.8 -0.3 24 9.6 NW 22 41 12 22 1011.3 1010.8 0.0
22/09:00am 20.8 14.2 -0.5 24 9.6 NNW 24 39 13 21 1010.9 1010.4 0.2
22/08:30am 20.6 15.0 1.0 27 9.1 NNW 20 32 11 17 1010.7 1010.2 0.2
22/08:00am 19.3 14.1 -0.1 27 8.7 NNW 17 33 9 18 1010.7 1010.2 0.2
22/07:30am 18.8 13.6 0.4 29 8.3 N 17 30 9 16 1010.2 1009.8 0.2
22/07:00am 17.3 13.0 0.9 33 7.4 N 13 24 7 13 1009.9 1009.5 0.2
22/06:30am 16.2 11.8 0.3 34 7.0 N 13 20 7 11 1009.9 1009.5 0.2
22/06:00am 15.9 12.3 0.9 36 6.7 NNE 9 17 5 9 1009.7 1009.3 0.2
22/05:30am 16.3 11.9 0.4 34 7.0 NNE 13 20 7 11 1009.6 1009.2 0.2
22/05:00am 16.9 12.6 1.0 34 7.1 N 13 24 7 13 1009.6 1009.2 0.2
22/04:30am 15.7 11.8 1.4 38 6.4 N 11 19 6 10 1009.7 1009.3 0.2
22/04:00am 14.7 11.4 2.3 43 5.6 NNE 9 17 5 9 1009.8 1009.4 0.2
22/03:30am 14.6 10.6 2.8 45 5.4 NNE 13 17 7 9 1010.0 1009.6 0.2
22/03:00am 13.7 9.8 3.2 49 4.8 NNE 13 17 7 9 1010.3 1009.9 0.2
22/02:30am 13.4 9.5 3.2 50 4.7 NNE 13 17 7 9 1010.7 1010.2 0.2
22/02:00am 12.7 8.8 3.6 54 4.2 NE 13 19 7 10 1011.1 1010.6 0.2
22/01:30am 12.7 8.6 4.4 57 3.9 NE 15 20 8 11 1011.5 1011.1 0.2
22/01:00am 13.4 10.1 4.3 54 4.2 NE 11 20 6 11 1012.0 1011.6 0.2
22/12:30am 15.0 11.2 3.8 47 5.2 NNE 13 19 7 10 1012.6 1012.2 0.2
22/12:00am 14.2 10.6 4.8 53 4.5 NE 13 19 7 10 1012.9 1012.5 0.2
 
Date/Time
CDT
Temp
°C
App
Temp
°C
Dew
Point
°C
Rel
Hum
%
Delta-T
°C
Wind Press
QNH
hPa
Press
MSL
hPa
Rain since
9am
mm
Dir  Spd
km/h
Gust
km/h
Spd
kts
Gust
kts
21/11:30pm 13.8 10.0 5.7 58 3.9 NE 15 24 8 13 1013.2 1012.8 0.2
21/11:00pm 14.2 10.4 5.8 57 4.1 NE 15 20 8 11 1013.6 1013.1 0.2
21/10:30pm 14.2 10.4 5.8 57 4.1 NE 15 19 8 10 1013.9 1013.5 0.2
21/10:00pm 14.4 10.7 6.3 58 4.0 NE 15 20 8 11 1014.0 1013.6 0.2
21/09:30pm 15.1 12.1 5.9 54 4.5 NE 11 17 6 9 1014.2 1013.8 0.2
21/09:00pm 15.6 12.8 5.2 50 5.0 NNE 9 11 5 6 1014.1 1013.7 0.2
21/08:30pm 15.4 12.6 5.3 51 4.9 NNE 9 11 5 6 1014.0 1013.6 0.2
21/08:00pm 16.0 13.7 5.0 48 5.3 N 6 7 3 4 1014.1 1013.7 0.2
21/07:30pm 17.4 15.0 4.4 42 6.3 NW 6 9 3 5 1014.2 1013.8 0.2
21/07:00pm 18.4 16.6 5.6 43 6.4 NW 4 7 2 4 1014.2 1013.8 0.2
21/06:30pm 19.2 17.1 6.0 42 6.7 NW 6 11 3 6 1014.2 1013.8 0.2
21/06:00pm 19.3 16.0 4.3 37 7.3 WNW 11 17 6 9 1014.1 1013.7 0.2
21/05:30pm 19.4 16.0 4.0 36 7.5 WNW 11 19 6 10 1014.2 1013.8 0.2
21/05:00pm 19.3 15.7 5.0 39 7.1 WNW 13 20 7 11 1014.3 1013.9 0.2
21/04:30pm 19.0 15.5 3.6 36 7.4 NW 11 19 6 10 1014.6 1014.2 0.2
21/04:00pm 19.5 16.0 3.6 35 7.7 NW 11 17 6 9 1014.8 1014.4 0.2
21/03:30pm 19.3 15.8 5.4 40 6.9 NW 13 19 7 10 1015.2 1014.8 0.2
21/03:00pm 19.1 15.8 4.8 39 7.0 NW 11 19 6 10 1015.7 1015.3 0.2
21/02:30pm 18.0 15.0 6.2 46 5.9 WNW 11 22 6 12 1016.3 1015.9 0.2
21/02:00pm 19.1 15.8 6.2 43 6.5 WNW 13 24 7 13 1016.7 1016.3 0.2
21/01:30pm 17.4 13.8 6.9 50 5.3 WNW 15 22 8 12 1017.1 1016.7 0.2
21/01:00pm 17.1 13.6 5.4 46 5.7 WNW 13 20 7 11 1017.4 1017.0 0.2
21/12:30pm 17.9 15.2 7.3 50 5.4 NNW 11 19 6 10 1017.9 1017.5 0.2
21/12:00pm 16.7 14.2 6.5 51 5.1 NNW 9 17 5 9 1018.4 1018.0 0.2
21/11:30am 15.9 12.7 6.9 55 4.5 NW 13 19 7 10 1018.8 1018.5 0.2
21/11:00am 15.5 13.2 7.3 58 4.1 NW 9 17 5 9 1019.2 1018.8 0.2
21/10:30am 15.7 14.0 8.4 62 3.8 NE 7 13 4 7 1019.4 1019.0 0.2
21/10:00am 14.0 11.8 8.0 67 3.0 NNW 9 13 5 7 1019.7 1019.3 0.0
21/09:30am 13.9 11.7 7.7 66 3.1 NNE 9 15 5 8 1019.9 1019.5 0.0
21/09:00am 12.2 10.4 8.1 76 2.1 NE 7 11 4 6 1019.8 1019.4 0.0
21/08:30am 10.7 9.0 8.5 86 1.1 NE 7 11 4 6 1019.9 1019.5 0.0
21/08:00am 9.4 7.8 8.8 96 0.3 NE 7 9 4 5 1019.8 1019.4 0.0
21/07:30am 7.9 6.0 7.6 98 0.1 NNE 7 11 4 6 1019.7 1019.3 0.0
21/07:00am 7.4 5.0 7.1 98 0.1 NE 9 13 5 7 1019.5 1019.1 0.0
21/06:30am 7.4 4.6 7.1 98 0.1 NE 11 15 6 8 1019.4 1019.0 0.0
21/06:00am 7.3 4.1 7.0 98 0.1 NE 13 17 7 9 1019.3 1018.9 0.0
21/05:30am 7.3 4.5 7.0 98 0.1 NE 11 15 6 8 1019.2 1018.8 0.0
21/05:00am 7.2 4.0 6.9 98 0.1 NE 13 19 7 10 1018.9 1018.6 0.0
21/04:30am 7.2 3.6 6.8 97 0.2 NE 15 20 8 11 1018.6 1018.3 0.0
21/04:00am 7.2 3.6 6.8 97 0.2 NE 15 19 8 10 1018.9 1018.6 0.0
21/03:30am 7.5 4.7 7.1 97 0.2 ENE 11 15 6 8 1018.9 1018.6 0.0
21/03:00am 7.3 4.4 6.7 96 0.3 ENE 11 15 6 8 1019.1 1018.7 0.0
21/02:30am 7.7 4.9 7.1 96 0.3 ENE 11 15 6 8 1019.2 1018.8 0.0
21/02:00am 8.5 5.5 7.7 95 0.4 ESE 13 15 7 8 1019.3 1018.9 0.0
21/01:30am 8.5 5.9 7.6 94 0.4 ESE 11 15 6 8 1019.8 1019.4 0.0
21/01:00am 8.4 5.7 7.5 94 0.4 E 11 13 6 7 1020.2 1019.8 0.0
21/12:30am 8.1 5.7 6.9 92 0.6 E 9 13 5 7 1020.6 1020.2 0.0
21/12:00am 8.5 6.2 7.3 92 0.6 ESE 9 13 5 7 1020.9 1020.6 0.0
 
Date/Time
CDT
Temp
°C
App
Temp
°C
Dew
Point
°C
Rel
Hum
%
Delta-T
°C
Wind Press
QNH
hPa
Press
MSL
hPa
Rain since
9am
mm
Dir  Spd
km/h
Gust
km/h
Spd
kts
Gust
kts
20/11:30pm 8.7 6.7 7.2 90 0.7 SE 7 9 4 5 1021.2 1020.9 0.0
20/11:00pm 9.0 7.0 7.1 88 0.9 E 7 9 4 5 1021.1 1020.8 0.0
20/10:30pm 9.4 7.1 7.3 87 1.0 SE 9 11 5 6 1021.2 1020.9 0.0

Latest Capital City Observations: Canberra | Sydney | Melbourne | Brisbane | Adelaide | Perth | Hobart | Darwin

Other Formats:

Comma delimited format used in spreadsheet applications
http://www.bom.gov.au/fwo/IDS60901/IDS60901.94683.axf

JavaScript Object Notation format (JSON) in row-major order
http://www.bom.gov.au/fwo/IDS60901/IDS60901.94683.json